Weather observations for the past three days for
Beef Island
Imperial (Metric)
Date Time (ast) Wind (mph) Vis. (mi.) Weather Sky Cond. Temperature (ºF) Relative Humidity Wind Chill (°F) Heat Index (°F) Pressure Precipitation (in)
Air Dwpt 6 hour altimeter (in) sea level (mb) 1 hr 3 hr 6 hr
Max. Min.
01 17:00 E 9 10.00 A Few Clouds FEW022 86 75.2 70% 95 29.97 0.0
01 16:00 E 9 10.00 A Few Clouds FEW022 87.8 77 70% 100 29.97 0.0
01 15:00 NE 12 10.00 A Few Clouds FEW019 87.8 75.2 66% 98 29.97 0.0
01 14:00 E 10 10.00 Partly Cloudy FEW014CB SCT046 87.8 75.2 66% 98 30 0.0
01 13:00 E 10 10.00 A Few Clouds FEW014CB 87.8 71.6 59% 94 30.01 0.0
01 12:00 E 13 10.00 A Few Clouds FEW014CB 87.8 77 70% 100 30.02 0.0
01 11:00 E 14 10.00 Partly Cloudy FEW014CB SCT048 87.8 77 70% 100 30.03 0.0
01 10:00 E 7 10.00 Partly Cloudy FEW014CB SCT048 86 75.2 70% 95 30.04 0.0
01 09:00 E 9 10.00 Partly Cloudy FEW015CB SCT045 86 75.2 70% 95 30.03 0.0
01 08:00 E 9 10.00 Mostly Cloudy FEW019 BKN045 82.4 77 84% 91 30.01 0.0
01 07:00 Vrbl 3 10.00 Showers in Vicinity FEW014CB SCT018 BKN042 78.8 77 94% 83 30 0.0
31 22:00 E 8 10.00 Partly Cloudy SCT021 82.4 77 84% 91 30.03 0.0
31 21:00 E 8 10.00 Showers in Vicinity SCT019 82.4 77 84% 91 30.03 0.0
31 20:00 E 9 10.00 Mostly Cloudy BKN019 84.2 77 79% 94 30.01 0.0
31 19:00 E 8 10.00 Partly Cloudy SCT018 82.4 77 84% 91 30 0.0
31 18:00 E 8 10.00 A Few Clouds FEW018 82.4 77 84% 91 29.99 0.0
31 17:00 E 9 10.00 A Few Clouds FEW018 84.2 77 79% 94 29.98 0.0
31 16:00 E 9 10.00 A Few Clouds FEW018 86 75.2 70% 95 29.98 0.0
31 15:00 E 7 10.00 Partly Cloudy SCT017 SCT038 84.2 77 79% 94 29.99 0.0
31 14:00 NE 6 10.00 Light Rain FEW015 BKN044 82.4 77 84% 91 30 0.0
31 13:00 E 7 10.00 Light Rain FEW013 BKN044 82.4 77 84% 91 30.03 0.0
31 12:00 E 10 10.00 A Few Clouds FEW018 82.4 75.2 79% 89 30.02 0.0
31 11:00 E 20 G 33 10.00 Light Showers Rain FEW016TCU BKN018 78.8 75.2 89% 82 30.03 0.0
31 10:00 E 10 10.00 Mostly Cloudy BKN019 84.2 75.2 74% 92 30.02 0.0
31 09:00 SE 9 10.00 Partly Cloudy SCT019 84.2 75.2 74% 92 30.01 0.0
31 08:00 SE 9 10.00 Showers in Vicinity SCT018 82.4 75.2 79% 89 29.98 0.0
31 07:00 SE 13 10.00 Showers in Vicinity BKN018 80.6 75.2 84% 86 29.93 0.0
30 22:00 E 7 10.00 Light Rain FEW006 BKN017 80.6 77 89% 87 30.01 0.0
30 21:00 E 7 10.00 A Few Clouds FEW016 80.6 77 89% 87 29.98 0.0
30 20:00 E 8 10.00 A Few Clouds FEW014 80.6 75.2 84% 86 29.96 0.0
30 18:00 E 10 10.00 A Few Clouds FEW017 82.4 77 84% 91 29.94 0.0
30 17:00 E 7 10.00 Showers in Vicinity FEW016 80.6 77 89% 87 29.92 0.0
30 16:00 E 7 10.00 Showers in Vicinity FEW014 80.6 77 89% 87 29.92 0.0
30 15:00 E 13 10.00 Light Showers Rain FEW009 SCT017 BKN040 80.6 73.4 79% 85 29.93 0.0
30 14:00 SE 9 10.00 Showers in Vicinity FEW019 84.2 77 79% 94 29.93 0.0
30 12:00 S 15 10.00 Mostly Cloudy BKN018 84.2 78.8 84% 96 29.94 0.0
30 11:00 S 13 10.00 Partly Cloudy SCT018 82.4 78.8 89% 92 29.91 0.0
30 10:00 E 14 10.00 Showers in Vicinity SCT018 82.4 77 84% 91 29.96 0.0
30 09:00 E 16 10.00 Showers in Vicinity FEW009 SCT018 82.4 78.8 89% 92 29.9 0.0
30 08:00 NE 12 10.00 Showers in Vicinity BKN018 82.4 78.8 89% 92 29.9 0.0
30 07:00 NE 12 10.00 Showers in Vicinity BKN019 82.4 78.8 89% 92 29.9 0.0
29 22:00 NE 12 10.00 Partly Cloudy SCT020 84.2 78.8 84% 96 29.98 0.0
29 21:00 NE 9 10.00 Mostly Cloudy BKN019 84.2 78.8 84% 96 29.97 0.0
29 19:00 NE 8 10.00 Mostly Cloudy BKN018 84.2 78.8 84% 96 29.95 0.0
29 18:00 NE 8 10.00 Mostly Cloudy BKN019 86 78.8 79% 99 29.96 0.0
Date Time (ast) Wind (mph) Vis. (mi.) Weather Sky Cond. Air Dwpt Max. Min. Relative Humidity Wind Chill (°F) Heat Index (°F) altimeter (in) sea level (mb) 1 hr 3 hr 6 hr
6 hour
Temperature (ºF) Pressure Precipitation (in)